Time;durP1;ratioP1;P1;durP2;ratioP2;P2;SDS_P1;SDS_P2;PMS_P1;PMS_P2;Temp;Humidity;BMP_temperature;BMP_pressure;BME280_temperature;BME280_humidity;BME280_pressure;Samples;Min_cycle;Max_cycle;Signal;HPM_P1;HPM_P2
2021/11/03 00:01:32;;;;;;;4.73;4.33;;;8.10;98.70;;;;;;5039839;28;20209;-92
2021/11/03 00:04:00;;;;;;;4.73;4.33;;;8.20;98.90;;;;;;5059649;28;20208;-92
2021/11/03 00:06:27;;;;;;;5.00;4.60;;;8.30;98.70;;;;;;5036657;28;20177;-92
2021/11/03 00:08:53;;;;;;;5.77;4.47;;;8.30;98.10;;;;;;5041190;28;20204;-93
2021/11/03 00:11:19;;;;;;;5.77;4.53;;;8.20;98.00;;;;;;5043774;28;20239;-92
2021/11/03 00:13:45;;;;;;;4.20;3.90;;;8.20;98.60;;;;;;5051887;28;20200;-92
2021/11/03 00:16:11;;;;;;;4.40;4.10;;;8.30;98.70;;;;;;5023097;28;20275;-92
2021/11/03 00:18:37;;;;;;;4.43;3.97;;;8.30;98.90;;;;;;5059080;28;20184;-92
2021/11/03 00:21:04;;;;;;;4.43;4.10;;;8.40;98.60;;;;;;5032794;28;20224;-92
2021/11/03 00:23:29;;;;;;;5.03;4.23;;;8.40;98.70;;;;;;5048275;28;20216;-92
2021/11/03 00:25:55;;;;;;;5.30;4.80;;;8.50;98.70;;;;;;5060035;28;20200;-92
2021/11/03 00:28:22;;;;;;;4.07;3.77;;;8.50;98.00;;;;;;5047865;28;20188;-92
2021/11/03 00:30:52;;;;;;;4.13;3.83;;;8.40;97.80;;;;;;5052254;28;20188;-92
2021/11/03 00:33:18;;;;;;;4.30;3.90;;;8.40;97.80;;;;;;5058142;28;20192;-91
2021/11/03 00:35:44;;;;;;;5.03;4.20;;;8.40;97.60;;;;;;5044086;28;20179;-92
2021/11/03 00:38:10;;;;;;;4.47;4.10;;;8.50;98.20;;;;;;5065342;28;20272;-91
2021/11/03 00:40:36;;;;;;;4.80;4.27;;;8.40;98.00;;;;;;5058158;28;20187;-92
2021/11/03 00:43:02;;;;;;;4.40;4.07;;;8.40;97.70;;;;;;5059440;28;20252;-92
2021/11/03 00:45:28;;;;;;;4.07;3.77;;;8.40;97.40;;;;;;5039620;28;20279;-92
2021/11/03 00:47:54;;;;;;;4.27;3.87;;;8.30;97.80;;;;;;5038595;28;20188;-92
2021/11/03 00:50:21;;;;;;;4.40;4.00;;;8.40;98.10;;;;;;5041222;28;20223;-92
2021/11/03 00:52:46;;;;;;;3.90;3.53;;;8.40;98.00;;;;;;5055604;28;20729;-91
2021/11/03 00:55:12;;;;;;;4.33;3.90;;;8.40;98.20;;;;;;5055146;28;20192;-91
2021/11/03 00:57:38;;;;;;;3.70;3.40;;;8.50;97.70;;;;;;5025138;28;20205;-91
2021/11/03 01:00:06;;;;;;;4.03;3.50;;;8.50;97.60;;;;;;5044220;28;20192;-91
2021/11/03 01:02:32;;;;;;;3.30;3.10;;;8.50;97.70;;;;;;5046700;28;20232;-91
2021/11/03 01:04:58;;;;;;;3.37;3.07;;;8.50;97.80;;;;;;5046060;28;20188;-91
2021/11/03 01:07:24;;;;;;;2.83;2.63;;;8.50;97.60;;;;;;5041559;28;20192;-92
2021/11/03 01:09:49;;;;;;;2.63;2.43;;;8.50;97.90;;;;;;5038905;28;20246;-91
2021/11/03 01:12:15;;;;;;;3.17;2.73;;;8.50;97.80;;;;;;5061176;28;20212;-92
2021/11/03 01:14:42;;;;;;;3.23;2.93;;;8.50;97.60;;;;;;5038872;28;20187;-91
2021/11/03 01:17:07;;;;;;;3.60;3.30;;;8.50;98.00;;;;;;5056736;28;20254;-92
2021/11/03 01:19:34;;;;;;;3.57;3.00;;;8.50;97.60;;;;;;5041192;28;20589;-92
2021/11/03 01:22:00;;;;;;;3.20;2.77;;;8.50;97.10;;;;;;5061054;28;20300;-93
2021/11/03 01:24:26;;;;;;;4.27;2.60;;;8.50;97.30;;;;;;5057326;28;20200;-91
2021/11/03 01:26:52;;;;;;;3.97;2.57;;;8.50;98.10;;;;;;5038613;28;20192;-92
2021/11/03 01:29:18;;;;;;;3.57;2.60;;;8.50;97.80;;;;;;5038997;28;20192;-92
2021/11/03 01:31:43;;;;;;;3.93;2.40;;;8.50;97.30;;;;;;5056845;28;20295;-92
2021/11/03 01:34:09;;;;;;;2.50;2.30;;;8.60;97.60;;;;;;5055357;28;20202;-92
2021/11/03 01:36:35;;;;;;;2.67;2.47;;;8.60;97.70;;;;;;5040917;28;20188;-92
2021/11/03 01:39:02;;;;;;;3.50;3.20;;;8.60;98.00;;;;;;5040252;28;20415;-92
2021/11/03 01:41:28;;;;;;;3.50;3.20;;;8.70;97.60;;;;;;5045109;28;20220;-91
2021/11/03 01:44:11;;;;;;;3.37;3.07;;;8.70;97.20;;;;;;5029730;28;20204;-92
2021/11/03 01:46:52;;;;;;;3.30;3.00;;;8.70;97.50;;;;;;5038253;28;20204;-93
2021/11/03 01:49:27;;;;;;;3.20;2.90;;;8.70;97.90;;;;;;5055674;28;20172;-93
2021/11/03 01:51:53;;;;;;;3.33;2.93;;;8.70;98.00;;;;;;5023730;28;20213;-91
2021/11/03 01:54:32;;;;;;;4.03;2.83;;;8.80;97.80;;;;;;5038416;28;20178;-93
2021/11/03 01:56:59;;;;;;;3.50;2.90;;;8.80;97.40;;;;;;5055092;28;20223;-93
2021/11/03 01:59:34;;;;;;;3.37;3.10;;;8.80;97.60;;;;;;5053476;28;20199;-92
2021/11/03 02:02:03;;;;;;;4.27;2.80;;;8.70;98.20;;;;;;5041505;28;20265;-92
2021/11/03 02:04:30;;;;;;;3.67;2.60;;;8.70;98.10;;;;;;5036330;28;20258;-93
2021/11/03 02:06:59;;;;;;;2.87;2.53;;;8.80;97.80;;;;;;5053563;28;20203;-93
2021/11/03 02:09:25;;;;;;;5.23;3.13;;;8.80;97.30;;;;;;5036187;28;20192;-93
2021/11/03 02:11:51;;;;;;;3.27;3.00;;;8.80;97.60;;;;;;5036752;28;20204;-92
2021/11/03 02:14:16;;;;;;;2.60;2.40;;;8.80;97.60;;;;;;5050772;28;20204;-92
2021/11/03 02:16:46;;;;;;;2.80;2.60;;;8.80;97.60;;;;;;5016916;28;20182;-92
2021/11/03 02:19:18;;;;;;;3.07;2.63;;;8.80;97.70;;;;;;5034257;28;20733;-93
2021/11/03 02:22:01;;;;;;;2.90;2.60;;;8.80;98.60;;;;;;5035920;28;20534;-93
2021/11/03 02:24:36;;;;;;;3.13;2.70;;;8.80;98.10;;;;;;5053557;28;20249;-92
2021/11/03 02:27:03;;;;;;;4.03;2.53;;;8.80;97.70;;;;;;5044981;28;20183;-92
2021/11/03 02:29:29;;;;;;;2.60;2.40;;;8.90;97.40;;;;;;5052607;28;20193;-92
2021/11/03 02:32:11;;;;;;;4.73;3.00;;;8.90;97.70;;;;;;5054341;28;20271;-93
2021/11/03 02:34:37;;;;;;;5.53;3.60;;;8.90;97.30;;;;;;5035284;28;20177;-92
2021/11/03 02:37:28;;;;;;;3.83;3.30;;;8.80;97.50;;;;;;5048554;28;20187;-93
2021/11/03 02:40:08;;;;;;;3.90;3.23;;;8.70;98.00;;;;;;5053805;28;20195;-91
2021/11/03 02:42:38;;;;;;;3.67;2.93;;;8.60;98.30;;;;;;5053683;28;20670;-92
2021/11/03 02:45:09;;;;;;;3.40;2.60;;;8.70;98.70;;;;;;5035479;28;20547;-92
2021/11/03 02:47:35;;;;;;;3.60;3.30;;;8.70;98.60;;;;;;5053625;28;20176;-92
2021/11/03 02:50:01;;;;;;;2.90;2.70;;;8.80;98.90;;;;;;5051442;28;20181;-92
2021/11/03 02:52:27;;;;;;;3.07;2.77;;;8.80;97.90;;;;;;5052897;28;20214;-92
2021/11/03 02:54:54;;;;;;;3.33;2.90;;;8.80;98.20;;;;;;5047815;28;20630;-92
2021/11/03 02:57:20;;;;;;;3.43;3.00;;;8.80;98.30;;;;;;5031152;28;20176;-92
2021/11/03 02:59:47;;;;;;;4.23;2.87;;;8.70;98.10;;;;;;5015727;28;20193;-91
2021/11/03 03:02:13;;;;;;;3.30;3.00;;;8.70;98.40;;;;;;5038342;28;20211;-91
2021/11/03 03:04:42;;;;;;;3.97;3.10;;;8.70;98.90;;;;;;5045116;28;20548;-92
2021/11/03 03:07:09;;;;;;;3.17;2.87;;;8.70;99.00;;;;;;5032785;28;20200;-92
2021/11/03 03:09:36;;;;;;;2.87;2.67;;;8.60;99.30;;;;;;5032949;28;20184;-92
2021/11/03 03:12:05;;;;;;;3.70;2.60;;;8.50;99.80;;;;;;5035320;28;20224;-92
2021/11/03 03:14:36;;;;;;;5.40;3.50;;;8.50;99.90;;;;;;5052374;28;20678;-92
2021/11/03 03:17:03;;;;;;;4.63;2.90;;;8.50;99.90;;;;;;5035568;28;20172;-92
2021/11/03 03:19:29;;;;;;;3.03;2.57;;;8.50;99.80;;;;;;5035314;28;20184;-92
2021/11/03 03:21:54;;;;;;;3.37;2.97;;;8.60;99.60;;;;;;5055813;28;20211;-92
2021/11/03 03:24:20;;;;;;;3.50;2.80;;;8.50;99.60;;;;;;5018976;28;20295;-92
2021/11/03 03:26:47;;;;;;;2.60;2.40;;;8.50;99.90;;;;;;5053694;28;20192;-92
2021/11/03 03:29:13;;;;;;;3.23;2.53;;;8.40;99.90;;;;;;5029314;28;20257;-93
2021/11/03 03:31:39;;;;;;;2.83;2.63;;;8.40;99.90;;;;;;5054641;28;20694;-91
2021/11/03 03:34:09;;;;;;;3.70;3.00;;;8.30;99.90;;;;;;5053118;28;20184;-92
2021/11/03 03:36:35;;;;;;;3.43;2.33;;;8.40;99.90;;;;;;5033592;28;20270;-92
2021/11/03 03:39:01;;;;;;;3.07;2.67;;;8.30;99.90;;;;;;5038249;28;20226;-92
2021/11/03 03:41:28;;;;;;;3.90;2.80;;;8.30;99.90;;;;;;5055898;28;20208;-91
2021/11/03 03:43:54;;;;;;;4.80;3.10;;;8.30;99.90;;;;;;5033489;28;20213;-92
2021/11/03 03:46:21;;;;;;;2.87;2.67;;;8.30;99.90;;;;;;5043428;28;20670;-91
2021/11/03 03:48:47;;;;;;;3.23;2.90;;;8.40;99.90;;;;;;5055827;28;20191;-91
2021/11/03 03:51:13;;;;;;;2.77;2.57;;;8.40;99.90;;;;;;5037254;28;20299;-91
2021/11/03 03:53:39;;;;;;;3.60;2.83;;;8.40;99.90;;;;;;5036348;28;20225;-91
2021/11/03 03:56:06;;;;;;;4.13;2.70;;;8.50;99.90;;;;;;5039052;28;20196;-91
2021/11/03 03:58:32;;;;;;;3.47;2.50;;;8.50;99.90;;;;;;5042726;28;20212;-91
2021/11/03 04:00:57;;;;;;;4.27;2.80;;;8.50;99.90;;;;;;5047358;28;20203;-92
2021/11/03 04:03:23;;;;;;;3.33;2.43;;;8.60;99.90;;;;;;5020634;28;20200;-91
2021/11/03 04:05:50;;;;;;;2.53;2.33;;;8.60;99.90;;;;;;5033801;28;20184;-91
2021/11/03 04:08:16;;;;;;;3.60;3.00;;;8.60;99.90;;;;;;5044740;28;20284;-92
2021/11/03 04:10:43;;;;;;;3.63;2.43;;;8.60;99.90;;;;;;5025859;28;20620;-92
2021/11/03 04:13:11;;;;;;;2.57;2.37;;;8.50;99.90;;;;;;5055447;28;20184;-91
2021/11/03 04:15:37;;;;;;;2.47;2.27;;;8.60;99.90;;;;;;5042079;28;20185;-92
2021/11/03 04:18:02;;;;;;;2.40;2.10;;;8.50;99.90;;;;;;5046369;28;20291;-91
2021/11/03 04:20:28;;;;;;;2.23;2.00;;;8.50;99.90;;;;;;5055925;28;20224;-91
2021/11/03 04:22:54;;;;;;;2.90;2.30;;;8.50;99.90;;;;;;5035744;28;20315;-91
2021/11/03 04:25:20;;;;;;;2.20;2.00;;;8.60;99.90;;;;;;5035071;28;20719;-91
2021/11/03 04:27:46;;;;;;;3.90;2.40;;;8.60;99.90;;;;;;5041130;28;20180;-91
2021/11/03 04:30:17;;;;;;;2.10;1.90;;;8.60;99.90;;;;;;5039089;28;20303;-91
2021/11/03 04:32:43;;;;;;;2.23;2.03;;;8.60;99.90;;;;;;5036409;28;20626;-91
2021/11/03 04:35:09;;;;;;;2.13;2.00;;;8.60;99.90;;;;;;5051553;28;20697;-92
2021/11/03 04:37:36;;;;;;;2.40;2.20;;;8.60;99.90;;;;;;5037553;28;20184;-92
2021/11/03 04:40:03;;;;;;;3.57;1.83;;;8.60;99.90;;;;;;5054832;28;20203;-92
2021/11/03 04:42:28;;;;;;;2.23;1.93;;;8.60;99.90;;;;;;5054876;28;20200;-92
2021/11/03 04:44:54;;;;;;;3.93;2.40;;;8.60;99.90;;;;;;5039061;28;20191;-91
2021/11/03 04:47:20;;;;;;;3.67;3.30;;;8.60;99.90;;;;;;5025605;28;20291;-91
2021/11/03 04:49:45;;;;;;;2.07;1.87;;;8.60;99.90;;;;;;5030735;28;20193;-92
2021/11/03 04:52:11;;;;;;;2.10;2.00;;;8.60;99.90;;;;;;5040751;28;20288;-91
2021/11/03 04:54:37;;;;;;;2.30;2.10;;;8.70;99.90;;;;;;5038830;28;20669;-91
2021/11/03 04:57:03;;;;;;;3.77;2.50;;;8.70;99.90;;;;;;5047262;28;20704;-91
2021/11/03 04:59:29;;;;;;;2.10;1.80;;;8.80;99.90;;;;;;5005714;28;20736;-90
2021/11/03 05:01:54;;;;;;;2.90;1.90;;;8.70;99.90;;;;;;5006589;28;20205;-91
2021/11/03 05:04:20;;;;;;;1.70;1.60;;;8.70;99.90;;;;;;5054175;28;20220;-91
2021/11/03 05:06:48;;;;;;;2.70;2.10;;;8.70;99.90;;;;;;5019186;28;20258;-91
2021/11/03 05:09:16;;;;;;;2.80;2.40;;;8.70;99.90;;;;;;5018320;28;20200;-91
2021/11/03 05:11:43;;;;;;;3.40;3.10;;;8.70;99.90;;;;;;5051613;28;20219;-91
2021/11/03 05:14:09;;;;;;;2.87;2.43;;;8.70;99.70;;;;;;5048785;28;20263;-92
2021/11/03 05:16:36;;;;;;;2.77;2.30;;;8.70;99.80;;;;;;5040124;28;20184;-91
2021/11/03 05:19:03;;;;;;;3.73;2.60;;;8.70;99.90;;;;;;5039505;28;20193;-91
2021/11/03 05:21:29;;;;;;;3.33;2.77;;;8.80;99.60;;;;;;5034602;28;20208;-91
2021/11/03 05:23:55;;;;;;;3.87;3.43;;;8.80;99.20;;;;;;5035746;28;20216;-91
2021/11/03 05:26:24;;;;;;;3.23;2.93;;;8.80;99.30;;;;;;5037032;28;20528;-91
2021/11/03 05:28:54;;;;;;;11.67;8.37;;;8.80;99.40;;;;;;5037018;28;20183;-92
2021/11/03 05:31:20;;;;;;;3.33;2.77;;;8.80;99.30;;;;;;5055507;28;20222;-93
2021/11/03 05:33:46;;;;;;;4.13;3.73;;;8.80;99.60;;;;;;5037747;28;20185;-92
2021/11/03 05:36:22;;;;;;;3.73;2.73;;;8.70;99.90;;;;;;5033491;28;20199;-91
2021/11/03 05:38:48;;;;;;;3.33;2.70;;;8.70;99.90;;;;;;5041403;28;20183;-91
2021/11/03 05:41:13;;;;;;;3.20;2.90;;;8.70;99.90;;;;;;5023829;28;20200;-92
2021/11/03 05:43:41;;;;;;;3.73;3.43;;;8.60;99.90;;;;;;5042661;28;20274;-90
2021/11/03 05:46:07;;;;;;;3.50;3.20;;;8.60;99.90;;;;;;5056565;28;20200;-92
2021/11/03 05:48:34;;;;;;;2.70;2.50;;;8.60;99.90;;;;;;5044583;28;20180;-92
2021/11/03 05:51:01;;;;;;;3.53;2.40;;;8.60;99.90;;;;;;5045346;28;20714;-91
2021/11/03 05:53:26;;;;;;;3.00;2.50;;;8.60;99.90;;;;;;5039026;28;20200;-91
2021/11/03 05:55:52;;;;;;;2.90;2.57;;;8.60;99.90;;;;;;5060978;28;20554;-91
2021/11/03 05:58:18;;;;;;;5.87;2.73;;;8.60;99.90;;;;;;5042992;28;20223;-92
2021/11/03 06:00:44;;;;;;;2.70;2.50;;;8.70;99.90;;;;;;5061302;28;20226;-91
2021/11/03 06:03:09;;;;;;;3.77;2.57;;;8.70;99.70;;;;;;5040677;28;20634;-91
2021/11/03 06:05:35;;;;;;;2.80;2.40;;;8.70;99.50;;;;;;5043429;28;20645;-91
2021/11/03 06:08:05;;;;;;;3.07;2.73;;;8.70;99.70;;;;;;5046314;28;20180;-91
2021/11/03 06:10:35;;;;;;;2.50;2.30;;;8.60;99.90;;;;;;5038941;28;20187;-91
2021/11/03 06:13:01;;;;;;;2.80;2.60;;;8.60;99.90;;;;;;5058450;28;20283;-91
2021/11/03 06:15:30;;;;;;;2.53;2.20;;;8.50;99.90;;;;;;5060261;28;20188;-91
2021/11/03 06:17:56;;;;;;;2.77;2.40;;;8.40;99.90;;;;;;5052487;28;20199;-92
2021/11/03 06:20:23;;;;;;;3.10;2.80;;;8.40;99.90;;;;;;5039237;28;20200;-92
2021/11/03 06:22:49;;;;;;;3.10;2.40;;;8.50;99.90;;;;;;5020548;28;20221;-91
2021/11/03 06:25:16;;;;;;;6.00;5.60;;;8.50;99.90;;;;;;5046371;28;20224;-91
2021/11/03 06:27:43;;;;;;;3.70;3.40;;;8.60;99.90;;;;;;5056896;28;20180;-91
2021/11/03 06:30:12;;;;;;;3.07;2.70;;;8.60;99.90;;;;;;5059516;28;20181;-91
2021/11/03 06:32:38;;;;;;;2.10;1.90;;;8.60;99.90;;;;;;5043570;28;20200;-92
2021/11/03 06:35:05;;;;;;;3.17;2.17;;;8.70;99.90;;;;;;5049282;28;20243;-91
2021/11/03 06:37:31;;;;;;;2.80;2.60;;;8.70;99.90;;;;;;5037415;28;20255;-91
2021/11/03 06:39:57;;;;;;;2.57;2.37;;;8.70;99.90;;;;;;5056089;28;20195;-91
2021/11/03 06:42:23;;;;;;;2.60;2.40;;;8.70;99.90;;;;;;5026373;28;20205;-91
2021/11/03 06:44:49;;;;;;;2.83;2.60;;;8.60;99.90;;;;;;5045777;28;20188;-91
2021/11/03 06:47:15;;;;;;;2.57;2.37;;;8.60;99.90;;;;;;5061329;28;20212;-91
2021/11/03 06:49:41;;;;;;;2.70;2.50;;;8.70;99.90;;;;;;5038698;28;20767;-91
2021/11/03 06:52:07;;;;;;;4.03;2.30;;;8.70;99.90;;;;;;5055849;28;20213;-90
2021/11/03 06:54:33;;;;;;;29.40;26.50;;;8.80;99.90;;;;;;5038872;28;20297;-90
2021/11/03 06:57:02;;;;;;;3.50;3.20;;;8.90;99.20;;;;;;5050990;28;20244;-90
2021/11/03 06:59:28;;;;;;;3.13;2.57;;;8.90;99.80;;;;;;5053514;28;20197;-89
2021/11/03 07:01:54;;;;;;;2.90;2.60;;;8.90;99.60;;;;;;5058202;28;20208;-90
2021/11/03 07:04:20;;;;;;;5.20;2.50;;;8.90;99.60;;;;;;5042805;28;20297;-91
2021/11/03 07:06:45;;;;;;;2.97;2.60;;;8.90;99.80;;;;;;5032543;28;20189;-91
2021/11/03 07:09:11;;;;;;;3.17;2.83;;;9.00;99.50;;;;;;5056731;28;20182;-91
2021/11/03 07:11:37;;;;;;;2.33;2.23;;;8.90;99.60;;;;;;5025899;28;20296;-91
2021/11/03 07:14:04;;;;;;;2.60;2.40;;;8.80;99.80;;;;;;5055756;28;20198;-91
2021/11/03 07:16:30;;;;;;;3.60;3.30;;;8.80;99.90;;;;;;5052862;28;20192;-91
2021/11/03 07:18:56;;;;;;;2.83;2.63;;;8.80;99.90;;;;;;5046948;28;20600;-90
2021/11/03 07:21:21;;;;;;;6.83;4.07;;;8.90;99.90;;;;;;5044514;28;20267;-90
2021/11/03 07:23:47;;;;;;;2.73;2.50;;;8.90;99.90;;;;;;5059450;28;20217;-92
2021/11/03 07:26:14;;;;;;;2.73;2.53;;;8.90;99.90;;;;;;5053517;28;20219;-90
2021/11/03 07:28:40;;;;;;;3.67;2.73;;;9.00;99.90;;;;;;5052180;28;20298;-90
2021/11/03 07:31:07;;;;;;;3.70;3.30;;;8.90;99.90;;;;;;5059662;28;20272;-90
2021/11/03 07:33:33;;;;;;;3.60;3.30;;;8.90;99.90;;;;;;5025941;28;20659;-90
2021/11/03 07:36:00;;;;;;;3.37;2.93;;;8.90;99.90;;;;;;5057142;28;20180;-90
2021/11/03 07:38:27;;;;;;;3.53;2.80;;;8.90;99.90;;;;;;5055755;28;20188;-90
2021/11/03 07:40:56;;;;;;;5.20;4.80;;;9.00;99.90;;;;;;5033905;28;20192;-92
2021/11/03 07:43:25;;;;;;;4.93;4.43;;;9.00;99.90;;;;;;5055365;28;20208;-93
2021/11/03 07:45:52;;;;;;;4.00;3.60;;;9.00;99.90;;;;;;5058178;28;20276;-91
2021/11/03 07:48:20;;;;;;;6.37;4.10;;;8.90;99.90;;;;;;5044883;28;20688;-92
2021/11/03 07:50:50;;;;;;;4.40;4.00;;;8.90;99.90;;;;;;5042257;28;20263;-91
2021/11/03 07:53:17;;;;;;;3.93;3.53;;;8.90;99.90;;;;;;5026254;28;20216;-92
2021/11/03 07:55:47;;;;;;;5.10;3.10;;;9.00;99.90;;;;;;5040420;28;20214;-91
2021/11/03 07:58:16;;;;;;;2.67;2.47;;;9.00;99.90;;;;;;5042946;28;20275;-91
2021/11/03 08:00:42;;;;;;;3.23;2.93;;;9.10;99.90;;;;;;5043419;28;20185;-91
2021/11/03 08:03:08;;;;;;;3.10;2.80;;;9.00;99.90;;;;;;5039616;28;20252;-91
2021/11/03 08:05:35;;;;;;;3.17;2.50;;;9.10;99.90;;;;;;5041851;28;20192;-92
2021/11/03 08:08:10;;;;;;;3.97;3.33;;;9.10;99.90;;;;;;5025096;28;20237;-91
2021/11/03 08:10:37;;;;;;;3.17;2.77;;;9.20;99.90;;;;;;5046565;28;20180;-92
2021/11/03 08:13:04;;;;;;;4.60;4.20;;;9.20;99.90;;;;;;5051009;28;20210;-93
2021/11/03 08:15:29;;;;;;;2.83;2.63;;;9.20;99.90;;;;;;5034773;28;20191;-92
2021/11/03 08:17:57;;;;;;;3.27;2.70;;;9.20;99.90;;;;;;5054460;28;20252;-92
2021/11/03 08:20:25;;;;;;;2.80;2.60;;;9.10;99.90;;;;;;5056318;28;20626;-93
2021/11/03 08:22:56;;;;;;;3.27;2.97;;;9.20;99.90;;;;;;5054703;28;20232;-92
2021/11/03 08:25:22;;;;;;;3.07;2.77;;;9.30;99.90;;;;;;5042326;28;20185;-91
2021/11/03 08:27:48;;;;;;;5.77;3.10;;;9.20;99.90;;;;;;5042392;28;20200;-91
2021/11/03 08:30:16;;;;;;;3.53;3.23;;;9.30;99.90;;;;;;5057212;28;20193;-91
2021/11/03 08:32:48;;;;;;;3.70;3.40;;;9.30;99.90;;;;;;5044093;28;20296;-91
2021/11/03 08:35:15;;;;;;;4.70;3.80;;;9.30;99.90;;;;;;5059017;28;20193;-91
2021/11/03 08:37:41;;;;;;;5.53;3.83;;;9.40;99.90;;;;;;5057696;28;20196;-92
2021/11/03 08:40:11;;;;;;;4.57;3.40;;;9.40;99.90;;;;;;5025970;28;20220;-92
2021/11/03 08:42:36;;;;;;;3.77;3.40;;;9.40;99.90;;;;;;5058233;28;20233;-91
2021/11/03 08:45:04;;;;;;;4.67;3.30;;;9.40;99.90;;;;;;5039182;28;20195;-92
2021/11/03 08:47:29;;;;;;;4.67;4.17;;;9.40;99.90;;;;;;5040562;28;20189;-92
2021/11/03 08:49:55;;;;;;;6.80;3.83;;;9.40;99.90;;;;;;5021202;28;20192;-91
2021/11/03 08:52:21;;;;;;;5.60;4.00;;;9.40;99.90;;;;;;5056413;28;20695;-92
2021/11/03 08:54:49;;;;;;;3.57;2.93;;;9.30;99.90;;;;;;5033724;28;20198;-92
2021/11/03 08:57:21;;;;;;;4.13;3.47;;;9.40;99.90;;;;;;5040557;28;20197;-91
2021/11/03 08:59:51;;;;;;;3.60;3.10;;;9.40;99.90;;;;;;5027857;28;20197;-90
2021/11/03 09:02:17;;;;;;;3.73;3.03;;;9.40;99.90;;;;;;5033509;28;20213;-91
2021/11/03 09:04:45;;;;;;;4.07;2.90;;;9.50;99.90;;;;;;5046454;28;20217;-91
2021/11/03 09:07:13;;;;;;;3.27;2.97;;;9.60;99.90;;;;;;5037953;28;20228;-92
2021/11/03 09:09:42;;;;;;;3.93;3.63;;;9.70;99.90;;;;;;5053132;28;20614;-91
2021/11/03 09:12:09;;;;;;;3.20;3.00;;;9.70;99.90;;;;;;5054144;28;20210;-92
2021/11/03 09:14:35;;;;;;;3.60;3.03;;;9.70;99.90;;;;;;5055663;28;20197;-93
2021/11/03 09:17:00;;;;;;;3.90;3.53;;;9.60;99.90;;;;;;5055605;28;20219;-93
2021/11/03 09:19:26;;;;;;;5.13;3.30;;;9.60;99.90;;;;;;5038221;28;20476;-92
2021/11/03 09:21:52;;;;;;;3.47;3.17;;;9.60;99.90;;;;;;5038352;28;20220;-92
2021/11/03 09:24:18;;;;;;;4.77;3.60;;;9.60;99.90;;;;;;5021673;28;20207;-92
2021/11/03 09:26:44;;;;;;;3.80;3.50;;;9.60;99.90;;;;;;5054530;28;20237;-93
2021/11/03 09:29:12;;;;;;;5.87;4.10;;;9.50;99.90;;;;;;5036730;28;20720;-93
2021/11/03 09:31:39;;;;;;;4.73;4.20;;;9.50;99.90;;;;;;5055229;28;20261;-92
2021/11/03 09:34:05;;;;;;;5.30;4.80;;;9.60;99.90;;;;;;5053622;28;20282;-92
2021/11/03 09:36:31;;;;;;;4.33;3.70;;;9.70;99.90;;;;;;5034694;28;20208;-91
2021/11/03 09:38:57;;;;;;;6.07;4.30;;;9.70;99.90;;;;;;5037947;28;20192;-92
2021/11/03 09:41:34;;;;;;;8.13;4.70;;;9.60;99.90;;;;;;5055441;28;20189;-93
2021/11/03 09:44:20;;;;;;;5.53;4.73;;;9.70;99.90;;;;;;5053445;28;20648;-92
2021/11/03 09:46:55;;;;;;;5.37;4.47;;;9.50;99.90;;;;;;5052386;28;20681;-93
2021/11/03 09:49:31;;;;;;;4.90;4.40;;;9.40;99.90;;;;;;5055109;28;20191;-92
2021/11/03 09:52:15;;;;;;;5.63;4.77;;;9.50;99.90;;;;;;5055411;28;20246;-92
2021/11/03 09:54:44;;;;;;;5.33;4.70;;;9.40;99.90;;;;;;5060474;28;20192;-92
2021/11/03 09:57:39;;;;;;;6.07;4.37;;;9.30;99.90;;;;;;5062874;28;20192;-92
2021/11/03 10:00:17;;;;;;;4.40;4.00;;;9.40;99.90;;;;;;5045878;28;20193;-91
2021/11/03 10:02:51;;;;;;;5.37;4.87;;;9.50;99.90;;;;;;5065270;28;20303;-92
2021/11/03 10:05:40;;;;;;;5.97;4.97;;;9.20;99.90;;;;;;5057074;28;20195;-92
2021/11/03 10:08:14;;;;;;;8.77;5.60;;;9.40;99.90;;;;;;5056493;28;20187;-92
2021/11/03 10:10:48;;;;;;;5.23;4.80;;;9.40;99.90;;;;;;5046703;28;20187;-92
2021/11/03 10:13:25;;;;;;;5.13;4.70;;;9.50;99.90;;;;;;5065407;28;20192;-92
2021/11/03 10:16:01;;;;;;;5.57;5.07;;;9.50;99.90;;;;;;5064565;28;20191;-92
2021/11/03 10:18:32;;;;;;;10.37;9.33;;;9.50;99.90;;;;;;5052244;28;20220;-93
2021/11/03 10:20:58;;;;;;;7.47;6.77;;;9.60;99.90;;;;;;5033995;28;20215;-92
2021/11/03 10:23:27;;;;;;;6.57;5.30;;;9.70;99.90;;;;;;5046835;28;20211;-92
2021/11/03 10:26:10;;;;;;;5.80;4.90;;;9.60;99.90;;;;;;5046397;28;20280;-92
2021/11/03 10:28:43;;;;;;;5.40;4.90;;;9.50;99.90;;;;;;5061805;28;20184;-92
2021/11/03 10:31:27;;;;;;;5.13;4.50;;;9.50;99.90;;;;;;5045624;28;20204;-93
2021/11/03 10:34:00;;;;;;;5.17;4.67;;;9.40;99.90;;;;;;5049406;28;20194;-91
2021/11/03 10:36:37;;;;;;;4.73;4.33;;;9.50;99.90;;;;;;5052633;28;20185;-92
2021/11/03 10:39:18;;;;;;;5.57;4.17;;;9.70;99.90;;;;;;5032112;28;20195;-93
2021/11/03 10:41:58;;;;;;;5.47;4.17;;;9.90;99.90;;;;;;5062927;28;20204;-88
2021/11/03 10:44:27;;;;;;;4.23;3.83;;;9.80;99.90;;;;;;5041309;28;20248;-92
2021/11/03 10:47:07;;;;;;;5.07;4.67;;;9.80;99.90;;;;;;5059402;28;20196;-92
2021/11/03 10:50:02;;;;;;;5.27;4.77;;;9.90;99.90;;;;;;5039004;28;20234;-92
2021/11/03 10:52:52;;;;;;;4.73;4.33;;;9.80;99.90;;;;;;5028844;28;20209;-91
2021/11/03 10:55:29;;;;;;;4.40;4.00;;;9.80;99.90;;;;;;5042248;28;20243;-91
2021/11/03 10:58:11;;;;;;;4.93;4.53;;;9.90;99.90;;;;;;5036412;28;20185;-91
2021/11/03 11:00:41;;;;;;;4.03;3.73;;;10.00;99.90;;;;;;5052976;28;20212;-91
2021/11/03 11:03:14;;;;;;;4.63;4.17;;;10.00;99.90;;;;;;5053966;28;20734;-91
2021/11/03 11:05:51;;;;;;;7.27;4.60;;;10.00;99.90;;;;;;5024839;28;20230;-91
2021/11/03 11:08:24;;;;;;;4.80;4.30;;;9.90;99.90;;;;;;5036620;28;20192;-90
2021/11/03 11:11:04;;;;;;;4.67;4.27;;;10.00;99.90;;;;;;5036761;28;20192;-91
2021/11/03 11:13:35;;;;;;;6.03;5.00;;;9.80;99.90;;;;;;5053161;28;20189;-91
2021/11/03 11:16:01;;;;;;;5.73;5.13;;;9.70;99.90;;;;;;5040625;28;20644;-92
2021/11/03 11:18:36;;;;;;;4.80;4.40;;;9.70;99.90;;;;;;5053814;28;20679;-92
2021/11/03 11:21:13;;;;;;;5.00;4.60;;;9.70;99.90;;;;;;5060002;28;20183;-91
2021/11/03 11:23:46;;;;;;;6.17;5.60;;;9.70;99.90;;;;;;5060164;28;20817;-91
2021/11/03 11:26:38;;;;;;;6.43;5.33;;;9.70;99.90;;;;;;5059017;28;20367;-91
2021/11/03 11:29:15;;;;;;;5.23;4.73;;;9.60;99.90;;;;;;5059426;28;20184;-90
2021/11/03 11:31:47;;;;;;;5.40;5.00;;;9.80;99.90;;;;;;5060302;28;20209;-91
2021/11/03 11:34:47;;;;;;;5.43;5.00;;;9.80;99.90;;;;;;5043589;28;20192;-90
2021/11/03 11:37:36;;;;;;;6.27;5.63;;;10.00;99.90;;;;;;5054365;28;20584;-90
2021/11/03 11:40:27;;;;;;;5.60;5.20;;;10.00;99.90;;;;;;5037418;28;20196;-90
2021/11/03 11:43:14;;;;;;;5.60;5.00;;;10.10;99.90;;;;;;5057600;28;20478;-90
2021/11/03 11:45:41;;;;;;;5.40;4.90;;;10.10;99.90;;;;;;5038824;28;20196;-90
2021/11/03 11:48:28;;;;;;;6.20;5.60;;;10.10;99.90;;;;;;5042170;28;20191;-90
2021/11/03 11:51:00;;;;;;;6.10;5.50;;;10.00;99.90;;;;;;5058097;28;20271;-91
2021/11/03 11:53:48;;;;;;;6.13;5.60;;;9.80;99.90;;;;;;5037284;28;20191;-91
2021/11/03 11:56:19;;;;;;;5.70;5.20;;;9.80;99.90;;;;;;5005758;28;20228;-91
2021/11/03 11:58:48;;;;;;;7.53;5.30;;;9.80;99.90;;;;;;5046950;28;20189;-93
2021/11/03 12:01:13;;;;;;;4.80;4.40;;;9.70;99.90;;;;;;5055333;28;20223;-91
2021/11/03 12:03:58;;;;;;;8.10;5.70;;;9.70;99.90;;;;;;5034635;28;20215;-91
2021/11/03 12:06:59;;;;;;;6.40;5.80;;;9.70;99.90;;;;;;5036094;28;20210;-91
2021/11/03 12:09:48;;;;;;;5.60;5.20;;;9.80;99.90;;;;;;5042446;28;20190;-90
2021/11/03 12:12:13;;;;;;;5.57;5.07;;;10.00;99.90;;;;;;5055742;28;20211;-91
2021/11/03 12:14:43;;;;;;;5.83;5.17;;;10.00;99.90;;;;;;5047154;28;20196;-91
2021/11/03 12:17:08;;;;;;;6.30;5.33;;;10.00;99.90;;;;;;5050158;28;20279;-91
2021/11/03 12:19:38;;;;;;;6.53;5.47;;;10.20;99.90;;;;;;5059736;28;20188;-91
2021/11/03 12:22:23;;;;;;;6.70;5.77;;;10.10;99.90;;;;;;5057304;28;20421;-90
2021/11/03 12:24:52;;;;;;;6.10;5.60;;;10.10;99.90;;;;;;5034718;28;20247;-90
2021/11/03 12:27:24;;;;;;;6.07;5.47;;;10.10;99.90;;;;;;5040985;28;20242;-91
2021/11/03 12:30:31;;;;;;;7.97;5.43;;;10.10;99.90;;;;;;5057630;28;20217;-91
2021/11/03 12:33:02;;;;;;;6.03;5.43;;;10.20;99.90;;;;;;5042679;28;20644;-92
2021/11/03 12:35:34;;;;;;;5.93;5.17;;;10.10;99.90;;;;;;5020510;28;20190;-91
2021/11/03 12:38:11;;;;;;;5.83;5.23;;;10.20;99.90;;;;;;5051341;28;20200;-91
2021/11/03 12:40:39;;;;;;;5.70;5.20;;;10.10;99.90;;;;;;5059438;28;20177;-91
2021/11/03 12:43:23;;;;;;;9.53;5.47;;;10.20;99.90;;;;;;5061859;28;20208;-91
2021/11/03 12:46:03;;;;;;;6.20;5.60;;;10.20;99.90;;;;;;5061253;28;20196;-92
2021/11/03 12:48:37;;;;;;;6.50;5.23;;;10.30;99.90;;;;;;5059216;28;21286;-92
2021/11/03 12:51:21;;;;;;;6.67;4.83;;;10.20;99.90;;;;;;5043886;28;20188;-92
2021/11/03 12:53:56;;;;;;;6.00;5.40;;;10.20;99.90;;;;;;5093119;22;20229;-90
2021/11/03 12:56:27;;;;;;;5.80;5.00;;;10.30;99.90;;;;;;5035094;28;20249;-90
2021/11/03 12:59:02;;;;;;;5.50;5.00;;;10.30;99.90;;;;;;5054708;28;20192;-91
2021/11/03 13:01:44;;;;;;;5.97;5.33;;;10.30;99.90;;;;;;5043589;28;20184;-91
2021/11/03 13:04:37;;;;;;;6.63;6.03;;;10.20;99.90;;;;;;5073305;28;20212;-91
2021/11/03 13:07:44;;;;;;;5.90;5.30;;;10.10;99.90;;;;;;5059335;28;20216;-90
2021/11/03 13:10:26;;;;;;;6.70;6.00;;;10.10;99.90;;;;;;5005115;28;20204;-91